Aviation Digital Data Service (ADDS)

Output produced by METARs form (2210 UTC 01 December 2021)
found at http://aviationweather.gov/metar/data/
 
KHKS 011732Z 0118/0218 21013G18KT P6SM SKC 
     FM012200 22005KT P6SM SKC